Time;durP1;ratioP1;P1;durP2;ratioP2;P2;SDS_P1;SDS_P2;PMS_P1;PMS_P2;Temp;Humidity;BMP_temperature;BMP_pressure;BME280_temperature;BME280_humidity;BME280_pressure;Samples;Min_cycle;Max_cycle;Signal;HPM_P1;HPM_P2
2023/03/20 00:01:01;;;;;;;4.70;3.00;;;;;;;5.86;65.94;97734.47;1149483;75;19552499;-67
2023/03/20 00:03:59;;;;;;;3.88;2.97;;;;;;;5.80;66.07;97736.25;1126166;75;19637948;-70
2023/03/20 00:06:58;;;;;;;4.95;3.53;;;;;;;5.75;66.81;97750.41;1159178;75;19601877;-68
2023/03/20 00:09:58;;;;;;;8.65;6.00;;;;;;;5.69;65.80;97752.91;1158373;75;19617630;-68
2023/03/20 00:12:59;;;;;;;7.78;5.80;;;;;;;5.68;67.34;97753.34;1162024;75;19652581;-69
2023/03/20 00:16:01;;;;;;;9.25;6.18;;;;;;;5.59;67.39;97751.31;1152654;75;19608295;-68
2023/03/20 00:18:58;;;;;;;6.43;4.70;;;;;;;5.56;67.14;97757.63;1133408;75;19573646;-66
2023/03/20 00:21:59;;;;;;;9.98;6.43;;;;;;;5.37;68.30;97753.97;1163329;75;19634031;-67
2023/03/20 00:24:58;;;;;;;7.10;5.43;;;;;;;5.47;68.00;97755.56;1150957;75;19669984;-68
2023/03/20 00:27:58;;;;;;;6.00;4.43;;;;;;;5.45;68.64;97751.78;1159856;75;19600230;-69
2023/03/20 00:31:01;;;;;;;7.15;3.83;;;;;;;5.43;68.44;97752.22;1158456;75;19691019;-69
2023/03/20 00:34:02;;;;;;;3.88;3.00;;;;;;;5.42;68.49;97752.66;1129283;75;19721609;-69
2023/03/20 00:36:59;;;;;;;4.03;3.17;;;;;;;5.33;69.34;97750.63;1116778;75;19536980;-68
2023/03/20 00:39:58;;;;;;;3.03;2.42;;;;;;;5.32;68.98;97740.97;1146873;75;19713205;-69
2023/03/20 00:43:03;;;;;;;2.90;2.25;;;;;;;5.28;70.18;97741.06;1162391;75;19582889;-68
2023/03/20 00:46:01;;;;;;;5.97;3.38;;;;;;;5.33;70.05;97731.63;1102510;75;19588493;-66
2023/03/20 00:48:58;;;;;;;3.78;2.50;;;;;;;5.34;69.80;97738.56;1129336;75;19569711;-68
2023/03/20 00:52:00;;;;;;;3.92;3.03;;;;;;;5.37;69.90;97736.94;1158193;75;19555605;-68
2023/03/20 00:54:58;;;;;;;3.78;2.83;;;;;;;5.32;70.13;97736.28;1144753;75;19644902;-67
2023/03/20 00:58:01;;;;;;;4.82;3.50;;;;;;;5.39;69.95;97737.25;1161533;75;19555417;-69
2023/03/20 01:01:01;;;;;;;3.20;2.83;;;;;;;5.43;69.42;97729.75;1133619;75;19595709;-69
2023/03/20 01:03:58;;;;;;;3.15;2.38;;;;;;;5.42;69.74;97725.53;1124225;75;19522499;-69
2023/03/20 01:06:58;;;;;;;2.85;2.33;;;;;;;5.42;69.81;97728.22;1160733;75;19632970;-68
2023/03/20 01:09:58;;;;;;;4.85;3.25;;;;;;;5.44;69.77;97734.00;1162688;75;19551768;-68
2023/03/20 01:13:01;;;;;;;3.47;2.60;;;;;;;5.43;70.18;97721.59;1164254;75;19703997;-67
2023/03/20 01:16:01;;;;;;;2.53;2.30;;;;;;;5.42;70.59;97720.84;1123285;75;19573166;-67
2023/03/20 01:18:58;;;;;;;3.30;2.50;;;;;;;5.43;69.78;97724.31;1122301;75;19578346;-68
2023/03/20 01:21:58;;;;;;;3.97;3.03;;;;;;;5.42;70.43;97714.66;1161424;75;19543705;-69
2023/03/20 01:24:58;;;;;;;4.32;3.20;;;;;;;5.40;70.80;97720.53;1160291;75;19670438;-68
2023/03/20 01:27:59;;;;;;;4.97;3.15;;;;;;;5.45;71.28;97719.19;1159204;75;19614649;-67
2023/03/20 01:31:01;;;;;;;4.22;3.00;;;;;;;5.46;70.46;97713.34;1154189;75;19616844;-68
2023/03/20 01:33:58;;;;;;;7.13;5.28;;;;;;;5.44;71.44;97721.16;1121647;75;19636059;-69
2023/03/20 01:37:00;;;;;;;4.53;2.95;;;;;;;5.49;70.56;97715.19;1162994;75;19666183;-69
2023/03/20 01:39:59;;;;;;;4.05;2.70;;;;;;;5.47;70.66;97722.25;1139938;75;19582028;-68
2023/03/20 01:42:58;;;;;;;4.07;3.03;;;;;;;5.49;71.00;97722.56;1155620;75;19683331;-67
2023/03/20 01:46:07;;;;;;;4.85;3.35;;;;;;;5.47;70.46;97716.81;1159698;75;19602960;-68
2023/03/20 01:49:42;;;;;;;;;;;;;;;5.52;70.63;97718.97;1051650;75;19629279;-67
2023/03/20 01:52:31;;;;;;;4.40;3.10;;;;;;;5.51;70.45;97718.22;1028747;67;19598454;-70
2023/03/20 01:55:26;;;;;;;2.33;2.10;;;;;;;5.52;70.35;97727.09;1097957;75;19675567;-67
2023/03/20 01:58:30;;;;;;;3.80;2.95;;;;;;;5.46;71.63;97718.00;1153652;75;19515322;-66
2023/03/20 02:01:30;;;;;;;3.70;2.97;;;;;;;5.46;70.46;97720.72;1108645;75;19650373;-68
2023/03/20 02:04:29;;;;;;;13.50;7.63;;;;;;;5.43;71.59;97722.34;1113437;75;19460802;-68
2023/03/20 02:07:26;;;;;;;7.20;6.15;;;;;;;5.27;70.67;97731.41;1117229;75;19642369;-66
2023/03/20 02:10:25;;;;;;;10.88;8.82;;;;;;;5.20;71.80;97739.03;1148788;75;19606722;-67
2023/03/20 02:13:28;;;;;;;10.25;8.23;;;;;;;5.36;71.88;97740.84;1163078;75;19542207;-69
2023/03/20 02:16:28;;;;;;;12.23;9.23;;;;;;;5.40;72.37;97744.94;1130465;75;19578197;-68
2023/03/20 02:19:36;;;;;;;7.13;5.80;;;;;;;5.39;71.42;97738.03;1129585;75;19684291;-67
2023/03/20 02:22:38;;;;;;;;;;;;;;;5.39;71.60;97729.88;1041146;75;19604047;-67
2023/03/20 02:26:05;;;;;;;8.10;3.40;;;;;;;5.37;71.49;97737.69;1029301;75;19654357;-70
2023/03/20 02:29:44;;;;;;;7.80;5.30;;;;;;;5.34;71.49;97731.19;1029658;67;19523588;-71
2023/03/20 02:33:21;;;;;;;5.65;3.90;;;;;;;5.29;72.13;97733.69;1027380;67;19573226;-71
2023/03/20 02:37:00;;;;;;;4.25;3.50;;;;;;;5.28;72.40;97738.34;1028848;67;19573147;-69
2023/03/20 02:40:09;;;;;;;7.00;3.80;;;;;;;5.24;72.10;97737.72;1025883;67;19763838;-69
2023/03/20 02:43:05;;;;;;;4.50;3.30;;;;;;;5.22;72.05;97740.13;1027649;67;19618668;-70
2023/03/20 02:46:03;;;;;;;2.10;1.90;;;;;;;5.22;72.56;97731.19;1028380;67;19608911;-69
2023/03/20 02:48:56;;;;;;;;;;;;;;;5.25;72.14;97743.91;1028839;67;19564603;-66
2023/03/20 02:52:01;;;;;;;6.40;4.90;;;;;;;5.21;72.98;97737.84;1109687;75;19600036;-67
2023/03/20 02:55:00;;;;;;;;;;;;;;;5.15;73.31;97742.28;1060961;75;19705724;-67
2023/03/20 02:57:57;;;;;;;;;;;;;;;5.21;73.81;97743.25;1062744;75;19595571;-68
2023/03/20 03:01:00;;;;;;;7.90;5.97;;;;;;;5.10;74.25;97733.50;1101610;75;19627158;-67
2023/03/20 03:03:56;;;;;;;;;;;;;;;5.17;74.05;97745.31;1065971;75;19592001;-67
2023/03/20 03:06:55;;;;;;;7.15;5.13;;;;;;;5.20;74.64;97736.31;1111700;75;19573123;-69
2023/03/20 03:10:00;;;;;;;7.30;4.95;;;;;;;5.22;74.29;97742.84;1126283;75;19562948;-68
2023/03/20 03:12:54;;;;;;;;;;;;;;;5.17;74.92;97753.47;1071534;75;19568063;-66
2023/03/20 03:15:56;;;;;;;6.60;4.25;;;;;;;5.19;74.94;97753.78;1142915;75;19654557;-67
2023/03/20 03:18:58;;;;;;;4.13;3.38;;;;;;;5.22;74.99;97747.47;1110376;75;19540517;-68
2023/03/20 03:21:52;;;;;;;3.90;2.93;;;;;;;5.28;74.03;97749.22;1083793;75;19709716;-69
2023/03/20 03:24:54;;;;;;;4.18;3.00;;;;;;;5.31;74.41;97742.16;1160902;75;19515369;-67
2023/03/20 03:28:02;;;;;;;7.05;4.85;;;;;;;5.18;74.89;97750.31;1138101;75;19525813;-68
2023/03/20 03:30:53;;;;;;;;;;;;;;;5.34;74.47;97760.28;1038222;75;19506053;-68
2023/03/20 03:33:55;;;;;;;8.95;4.72;;;;;;;5.41;74.93;97751.91;1150914;75;19651174;-69
2023/03/20 03:36:59;;;;;;;4.45;3.42;;;;;;;5.43;74.29;97746.03;1121387;75;19602941;-67
2023/03/20 03:39:54;;;;;;;;;;;;;;;5.47;74.83;97746.69;1079639;75;19562463;-69
2023/03/20 03:43:01;;;;;;;3.53;2.90;;;;;;;5.53;73.65;97748.41;1132596;75;19632642;-66
2023/03/20 03:45:55;;;;;;;;;;;;;;;5.50;74.77;97749.25;1052294;75;19638286;-66
2023/03/20 03:48:57;;;;;;;5.68;4.63;;;;;;;5.60;74.78;97760.97;1125016;75;19628574;-66
2023/03/20 03:51:57;;;;;;;4.88;4.40;;;;;;;5.60;75.10;97757.50;1098142;75;19584183;-67
2023/03/20 03:54:56;;;;;;;5.75;3.45;;;;;;;5.65;73.82;97763.16;1093061;75;19575008;-66
2023/03/20 03:58:00;;;;;;;4.07;3.55;;;;;;;5.69;74.84;97760.28;1111995;75;19605180;-66
2023/03/20 04:00:54;;;;;;;;;;;;;;;5.66;75.15;97772.78;1068662;75;19570974;-67
2023/03/20 04:03:56;;;;;;;4.75;3.50;;;;;;;5.69;75.37;97771.91;1130464;75;19576101;-67
2023/03/20 04:06:52;;;;;;;5.43;3.10;;;;;;;5.71;75.32;97780.38;1112697;75;19691460;-68
2023/03/20 04:09:52;;;;;;;4.15;3.28;;;;;;;5.79;74.38;97772.00;1163241;75;19543584;-67
2023/03/20 04:12:52;;;;;;;7.78;5.70;;;;;;;5.83;75.39;97773.38;1160326;75;19687849;-67
2023/03/20 04:15:57;;;;;;;4.93;4.15;;;;;;;5.87;74.56;97773.25;1164739;75;19593024;-69
2023/03/20 04:18:52;;;;;;;5.07;4.20;;;;;;;5.90;74.87;97780.53;1094711;75;19628893;-68
2023/03/20 04:21:54;;;;;;;6.22;3.97;;;;;;;5.91;74.30;97780.09;1158329;75;19585156;-67
2023/03/20 04:24:52;;;;;;;4.82;3.72;;;;;;;5.95;73.71;97782.72;1137911;75;19604339;-67
2023/03/20 04:27:52;;;;;;;4.13;3.53;;;;;;;5.96;73.56;97785.00;1156566;75;19559983;-68
2023/03/20 04:31:00;;;;;;;4.40;3.20;;;;;;;5.98;72.89;97782.59;1157671;75;19641574;-67
2023/03/20 04:33:52;;;;;;;;;;;;;;;6.01;73.00;97780.19;1066324;75;19555952;-67
2023/03/20 04:36:52;;;;;;;2.75;2.22;;;;;;;6.06;72.39;97790.50;1163740;75;19646191;-67
2023/03/20 04:39:52;;;;;;;4.07;2.05;;;;;;;6.06;72.76;97783.13;1162777;75;19548436;-67
2023/03/20 04:42:52;;;;;;;3.55;2.58;;;;;;;6.07;73.15;97786.59;1160977;75;19612804;-67
2023/03/20 04:45:52;;;;;;;6.13;3.95;;;;;;;6.04;73.61;97782.00;1159170;75;19552658;-68
2023/03/20 04:48:54;;;;;;;5.22;4.32;;;;;;;6.11;74.02;97795.34;1162531;75;19633291;-67
2023/03/20 04:51:52;;;;;;;9.93;7.82;;;;;;;6.09;74.18;97793.09;1133216;75;19549020;-67
2023/03/20 04:54:52;;;;;;;8.80;6.90;;;;;;;6.13;74.39;97787.53;1158573;75;19779675;-68
2023/03/20 04:57:52;;;;;;;6.10;4.75;;;;;;;6.17;73.94;97793.59;1159682;75;19570030;-68
2023/03/20 05:00:52;;;;;;;4.32;3.38;;;;;;;6.21;73.43;97802.41;1154171;75;19596765;-69
2023/03/20 05:03:59;;;;;;;6.10;4.80;;;;;;;6.21;73.96;97802.41;1160087;75;19566017;-68
2023/03/20 05:06:52;;;;;;;;;;;;;;;6.19;74.21;97805.53;1078231;75;19571157;-68
2023/03/20 05:09:52;;;;;;;5.45;3.15;;;;;;;6.28;73.52;97806.84;1161516;75;19702804;-68
2023/03/20 05:12:52;;;;;;;6.70;4.25;;;;;;;6.26;74.04;97814.66;1159937;75;19613230;-69
2023/03/20 05:15:53;;;;;;;6.95;4.38;;;;;;;6.26;74.25;97811.94;1158148;75;19582930;-68
2023/03/20 05:18:54;;;;;;;4.13;3.63;;;;;;;6.25;74.04;97811.16;1148515;75;19584207;-69
2023/03/20 05:21:52;;;;;;;4.57;3.67;;;;;;;6.28;73.49;97815.75;1126155;75;19699022;-69
2023/03/20 05:24:52;;;;;;;4.85;3.40;;;;;;;6.28;73.94;97818.47;1167350;75;19655584;-68
2023/03/20 05:27:52;;;;;;;3.25;2.90;;;;;;;6.35;73.50;97825.56;1159245;75;19644975;-68
2023/03/20 05:30:52;;;;;;;6.68;4.78;;;;;;;6.37;73.10;97821.25;1164428;75;19530021;-69
2023/03/20 05:33:54;;;;;;;8.32;6.18;;;;;;;6.41;73.48;97829.25;1159381;75;19640982;-68
2023/03/20 05:36:52;;;;;;;6.35;4.88;;;;;;;6.39;73.78;97832.41;1131667;75;19572020;-68
2023/03/20 05:39:52;;;;;;;6.68;5.13;;;;;;;6.42;73.62;97836.19;1160930;75;19566751;-68
2023/03/20 05:42:52;;;;;;;5.78;4.28;;;;;;;6.43;73.72;97842.41;1164660;75;19568496;-68
2023/03/20 05:45:52;;;;;;;5.72;3.83;;;;;;;6.49;73.57;97840.63;1157698;75;19803947;-68
2023/03/20 05:48:54;;;;;;;;;;;;;;;6.50;73.32;97839.44;1160160;75;19613063;-67
2023/03/20 05:51:52;;;;;;;5.15;3.38;;;;;;;6.56;72.87;97849.28;1130393;75;19774501;-67
2023/03/20 05:54:52;;;;;;;;;;;;;;;6.56;73.40;97843.84;1163538;75;19518723;-66
2023/03/20 05:57:52;;;;;;;4.82;3.88;;;;;;;6.55;73.43;97847.78;1166569;75;19579129;-69
2023/03/20 06:00:52;;;;;;;5.63;4.40;;;;;;;6.54;73.48;97845.50;1162510;75;19489637;-69
2023/03/20 06:03:55;;;;;;;8.13;5.88;;;;;;;6.65;73.99;97854.03;1160714;75;19600534;-67
2023/03/20 06:06:52;;;;;;;4.57;3.65;;;;;;;6.70;73.57;97847.28;1124967;75;19705786;-67
2023/03/20 06:09:52;;;;;;;7.20;3.42;;;;;;;6.75;73.42;97850.16;1160619;75;19541247;-67
2023/03/20 06:12:52;;;;;;;4.43;3.17;;;;;;;6.79;73.04;97850.81;1163254;75;19706985;-66
2023/03/20 06:15:52;;;;;;;3.35;2.72;;;;;;;6.88;72.86;97854.75;1153836;75;19537242;-68
2023/03/20 06:18:54;;;;;;;4.05;2.85;;;;;;;6.91;73.09;97853.91;1160219;75;19677960;-66
2023/03/20 06:21:52;;;;;;;3.58;3.03;;;;;;;6.97;73.02;97861.00;1132068;75;19583148;-68
2023/03/20 06:24:52;;;;;;;4.05;2.97;;;;;;;7.03;72.75;97855.75;1156481;75;19598958;-67
2023/03/20 06:27:52;;;;;;;4.40;3.33;;;;;;;7.13;72.68;97854.59;1160525;75;19600689;-66
2023/03/20 06:30:55;;;;;;;4.05;2.83;;;;;;;7.21;72.36;97858.56;1155756;75;19769363;-68
2023/03/20 06:33:55;;;;;;;3.15;2.75;;;;;;;7.28;72.10;97860.25;1132491;75;19600028;-68
2023/03/20 06:36:52;;;;;;;3.53;2.88;;;;;;;7.35;71.43;97856.50;1125246;75;19560985;-67
2023/03/20 06:39:52;;;;;;;5.07;3.92;;;;;;;7.43;71.51;97846.81;1165647;75;19717115;-68
2023/03/20 06:42:52;;;;;;;3.92;3.10;;;;;;;7.59;70.88;97854.00;1153207;75;19681490;-67
2023/03/20 06:45:52;;;;;;;4.78;3.28;;;;;;;7.64;70.39;97853.41;1166048;75;19688104;-68
2023/03/20 06:48:55;;;;;;;5.47;4.22;;;;;;;7.79;70.26;97864.47;1157274;75;19702865;-68
2023/03/20 06:51:52;;;;;;;6.95;5.13;;;;;;;7.63;70.23;97862.78;1120346;75;19609078;-66
2023/03/20 06:54:52;;;;;;;11.65;8.90;;;;;;;7.62;71.01;97862.00;1165909;75;19594986;-68
2023/03/20 06:57:52;;;;;;;16.35;10.63;;;;;;;7.65;71.06;97872.03;1164032;75;19508871;-67
2023/03/20 07:00:53;;;;;;;11.57;8.75;;;;;;;7.68;70.50;97867.66;1167331;75;19765923;-66
2023/03/20 07:03:55;;;;;;;19.55;10.98;;;;;;;7.71;70.79;97869.47;1149657;75;19605334;-66
2023/03/20 07:06:52;;;;;;;10.70;8.82;;;;;;;7.83;70.06;97873.28;1128191;75;19661445;-68
2023/03/20 07:09:52;;;;;;;12.77;8.77;;;;;;;8.06;69.65;97874.69;1157161;75;19631108;-69
2023/03/20 07:12:53;;;;;;;10.38;7.63;;;;;;;8.16;67.98;97880.91;1157146;75;19661781;-66
2023/03/20 07:15:52;;;;;;;20.30;9.30;;;;;;;8.18;68.21;97881.97;1146863;75;19626596;-67
2023/03/20 07:18:54;;;;;;;12.73;8.75;;;;;;;8.36;67.63;97874.97;1193534;64;19657263;-68
2023/03/20 07:21:52;;;;;;;9.48;6.80;;;;;;;8.53;67.75;97881.66;1126130;64;22528007;-68
2023/03/20 07:24:52;;;;;;;10.43;8.15;;;;;;;8.44;66.78;97868.81;1188169;64;19573032;-70
2023/03/20 07:27:52;;;;;;;;;;;;;;;8.52;66.61;97872.72;1180440;64;19643991;-67
2023/03/20 07:30:52;;;;;;;13.40;10.20;;;;;;;8.46;67.37;97877.28;1163643;75;19574153;-66
2023/03/20 07:34:35;;;;;;;9.70;7.70;;;;;;;8.75;66.20;97884.22;1712861;75;599055;-69
2023/03/20 07:37:06;;;;;;;14.80;9.10;;;;;;;8.84;66.01;97891.63;1706070;75;600874;-71
2023/03/20 07:39:36;;;;;;;20.40;9.90;;;;;;;8.86;65.77;97889.97;1713089;75;601150;-69
2023/03/20 07:42:06;;;;;;;13.20;9.40;;;;;;;9.02;65.33;97894.34;1721676;64;601166;-70
2023/03/20 07:44:37;;;;;;;9.65;6.90;;;;;;;9.24;64.60;97891.38;1728048;64;601206;-69
2023/03/20 07:47:07;;;;;;;9.40;5.90;;;;;;;9.43;64.01;97894.03;1763809;64;601237;-69
2023/03/20 07:49:40;;;;;;;11.25;8.65;;;;;;;9.41;64.10;97886.31;1990561;64;633063;-68
2023/03/20 07:52:10;;;;;;;13.00;9.80;;;;;;;9.49;63.87;97897.66;2021935;64;633088;-69
2023/03/20 07:54:41;;;;;;;13.60;10.40;;;;;;;9.42;64.25;97901.47;2033218;64;633076;-69
2023/03/20 07:57:11;;;;;;;14.70;10.20;;;;;;;9.59;63.47;97899.88;2024156;64;633081;-69
2023/03/20 07:59:41;;;;;;;13.50;9.30;;;;;;;9.85;62.96;97898.69;2035515;64;633481;-67
2023/03/20 08:02:17;;;;;;;15.80;10.20;;;;;;;9.81;63.81;97905.09;2023352;64;633091;-69
2023/03/20 08:04:49;;;;;;;11.10;8.80;;;;;;;10.09;62.48;97895.97;2033141;64;633065;-69
2023/03/20 08:07:20;;;;;;;9.85;7.50;;;;;;;10.29;62.01;97892.66;2023669;64;633092;-66
2023/03/20 08:09:51;;;;;;;13.90;9.80;;;;;;;10.10;62.22;97886.53;2033104;64;633108;-68
2023/03/20 08:12:21;;;;;;;11.30;8.40;;;;;;;10.36;60.68;97900.50;2020086;64;633096;-67
2023/03/20 08:14:51;;;;;;;14.90;9.00;;;;;;;10.22;61.06;97891.00;2030259;64;633109;-70
2023/03/20 08:17:21;;;;;;;13.70;9.90;;;;;;;10.26;60.77;97896.31;2020085;64;632210;-69
2023/03/20 08:19:54;;;;;;;17.40;9.45;;;;;;;10.53;60.14;97887.88;2029241;64;632055;-68
2023/03/20 08:22:24;;;;;;;13.60;9.60;;;;;;;10.73;59.91;97895.50;2023745;64;633383;-73
2023/03/20 08:24:54;;;;;;;13.05;8.75;;;;;;;10.99;59.98;97898.44;2030216;64;632027;-70
2023/03/20 08:27:25;;;;;;;13.80;9.95;;;;;;;11.06;59.14;97892.59;2023595;64;632082;-70
2023/03/20 08:29:55;;;;;;;10.90;8.30;;;;;;;11.19;58.18;97888.78;2029304;64;633051;-66
2023/03/20 08:32:25;;;;;;;9.60;6.60;;;;;;;11.67;57.56;97899.47;2023713;64;632054;-69
2023/03/20 08:34:58;;;;;;;7.70;5.90;;;;;;;12.27;55.38;97900.03;2040533;64;633125;-72
2023/03/20 08:37:28;;;;;;;8.10;7.30;;;;;;;12.49;53.83;97905.03;2027843;64;697019;-71
2023/03/20 08:39:58;;;;;;;11.50;9.05;;;;;;;12.80;53.63;97909.84;2038595;64;640362;-70
2023/03/20 08:42:28;;;;;;;9.75;7.20;;;;;;;12.92;52.79;97905.22;2029249;64;699281;-69
2023/03/20 08:44:59;;;;;;;8.35;7.30;;;;;;;13.26;52.19;97911.75;2036232;64;638740;-72
2023/03/20 08:47:29;;;;;;;10.05;7.85;;;;;;;13.72;51.52;97910.13;1790296;64;699083;-74
2023/03/20 08:50:02;;;;;;;6.70;6.00;;;;;;;13.99;50.09;97909.50;1741882;64;634157;-73
2023/03/20 08:52:32;;;;;;;8.30;7.20;;;;;;;14.20;49.64;97904.59;1719003;64;693078;-74
2023/03/20 08:55:02;;;;;;;8.35;7.05;;;;;;;14.37;48.86;97910.19;1732283;64;633142;-72
2023/03/20 08:57:32;;;;;;;10.65;7.20;;;;;;;14.92;48.33;97899.84;1717600;64;691989;-72
2023/03/20 09:00:03;;;;;;;8.90;7.65;;;;;;;14.98;47.49;97908.09;1754427;64;633171;-75
2023/03/20 09:02:33;;;;;;;10.25;8.50;;;;;;;15.29;46.67;97905.09;1717464;64;692941;-71
2023/03/20 09:05:06;;;;;;;9.50;7.30;;;;;;;15.79;45.80;97900.81;1747137;64;633103;-70
2023/03/20 09:07:36;;;;;;;10.55;8.15;;;;;;;16.02;44.79;97901.53;1734900;64;690547;-73
2023/03/20 09:10:10;;;;;;;13.90;11.10;;;;;;;16.33;44.15;97902.41;1758914;64;634146;-71
2023/03/20 09:12:40;;;;;;;10.35;7.95;;;;;;;16.76;43.83;97913.78;1727916;64;692006;-70
2023/03/20 09:15:12;;;;;;;7.20;6.10;;;;;;;16.41;43.31;97919.97;1743308;64;632109;-73
2023/03/20 09:17:42;;;;;;;10.75;8.00;;;;;;;16.60;42.60;97914.59;1728570;64;691964;-73
2023/03/20 09:20:16;;;;;;;9.55;6.55;;;;;;;16.58;43.36;97917.13;1742822;64;632155;-73
2023/03/20 09:22:46;;;;;;;8.40;5.30;;;;;;;16.77;43.01;97915.25;1717571;64;691433;-71
2023/03/20 09:25:16;;;;;;;7.10;6.10;;;;;;;16.65;43.07;97915.84;1732582;64;632093;-70
2023/03/20 09:27:46;;;;;;;9.00;6.15;;;;;;;16.98;42.64;97914.91;1730509;64;690927;-70
2023/03/20 09:30:18;;;;;;;13.10;8.10;;;;;;;16.74;43.16;97908.00;1732206;64;633067;-71
2023/03/20 09:32:48;;;;;;;9.75;7.10;;;;;;;17.01;42.04;97911.88;1728710;64;687417;-69
2023/03/20 09:35:22;;;;;;;7.30;5.60;;;;;;;17.12;42.43;97902.72;1744748;64;631062;-72
2023/03/20 09:37:53;;;;;;;8.55;6.65;;;;;;;17.01;41.83;97898.03;1735361;64;689829;-71
2023/03/20 09:40:31;;;;;;;8.00;6.00;;;;;;;16.92;41.63;97903.88;1725658;64;632120;-71
2023/03/20 09:43:14;;;;;;;9.75;6.15;;;;;;;17.09;41.19;97897.50;1722106;64;689723;-71
2023/03/20 09:45:53;;;;;;;6.65;5.15;;;;;;;17.79;39.43;97900.66;1705492;75;633054;-69
2023/03/20 09:48:35;;;;;;;8.50;5.85;;;;;;;18.27;39.39;97901.91;1712504;75;632995;-72
2023/03/20 09:51:21;;;;;;;6.20;4.35;;;;;;;18.86;37.09;97888.31;1704632;75;691202;-70
2023/03/20 09:53:57;;;;;;;7.10;4.80;;;;;;;19.34;37.21;97883.78;1704130;75;632068;-71
2023/03/20 09:56:31;;;;;;;9.45;7.30;;;;;;;18.85;38.17;97884.03;1712107;75;633072;-73
2023/03/20 09:59:05;;;;;;;10.80;7.30;;;;;;;18.78;39.03;97892.94;1704804;75;633051;-72
2023/03/20 10:01:44;;;;;;;10.30;8.60;;;;;;;19.37;38.58;97883.44;1713048;75;634117;-72
2023/03/20 10:04:15;;;;;;;8.45;6.30;;;;;;;19.44;38.02;97881.34;1704503;75;692621;-75
2023/03/20 10:06:48;;;;;;;8.50;5.70;;;;;;;19.37;37.41;97879.94;1712650;75;632042;-72
2023/03/20 10:09:23;;;;;;;9.70;6.40;;;;;;;19.15;38.44;97876.25;1703982;75;691875;-74
2023/03/20 10:12:31;;;;;;;12.40;7.10;;;;;;;18.80;38.92;97887.63;1709111;75;633950;-72
2023/03/20 10:15:09;;;;;;;8.10;6.70;;;;;;;18.67;39.34;97885.53;1704963;75;633958;-71
2023/03/20 10:17:53;;;;;;;9.30;7.80;;;;;;;18.69;39.05;97891.28;1712472;75;633043;-74
2023/03/20 10:20:35;;;;;;;10.15;6.70;;;;;;;18.56;38.77;97885.66;1703901;75;693444;-71
2023/03/20 10:23:15;;;;;;;9.40;6.40;;;;;;;18.40;38.74;97884.59;1704944;75;634113;-70
2023/03/20 10:25:52;;;;;;;8.30;5.90;;;;;;;18.25;40.07;97885.06;1712188;75;634106;-72
2023/03/20 10:28:28;;;;;;;6.90;4.70;;;;;;;18.31;39.63;97885.75;1704813;75;633003;-73
2023/03/20 10:31:26;;;;;;;8.10;5.75;;;;;;;18.23;39.43;97877.28;1712422;75;632084;-74
2023/03/20 10:34:11;;;;;;;8.50;5.40;;;;;;;17.91;39.96;97873.63;1704516;75;690131;-72
2023/03/20 10:36:56;;;;;;;7.20;5.60;;;;;;;18.00;39.48;97873.25;1705145;75;634156;-75
2023/03/20 10:39:49;;;;;;;7.60;5.20;;;;;;;18.43;39.23;97872.50;1711834;75;632486;-72
2023/03/20 10:42:24;;;;;;;6.30;4.50;;;;;;;18.18;39.68;97871.78;1704156;75;690473;-70
2023/03/20 10:45:01;;;;;;;6.20;4.70;;;;;;;18.16;39.40;97872.31;1707174;75;634104;-70
2023/03/20 10:47:35;;;;;;;4.90;3.45;;;;;;;18.90;38.20;97866.53;1712279;75;632049;-71
2023/03/20 10:50:13;;;;;;;6.50;3.60;;;;;;;18.70;37.99;97863.03;1704413;75;633069;-72
2023/03/20 10:52:46;;;;;;;5.00;3.60;;;;;;;18.42;38.21;97859.88;1712329;75;634121;-73
2023/03/20 10:55:23;;;;;;;5.40;3.30;;;;;;;18.62;38.49;97861.41;1705105;75;632987;-72
2023/03/20 10:58:00;;;;;;;10.20;5.30;;;;;;;17.43;39.47;97864.75;1712502;75;633079;-72
2023/03/20 11:00:32;;;;;;;4.05;2.85;;;;;;;18.18;38.31;97863.47;1703639;75;689736;-74
2023/03/20 11:03:02;;;;;;;4.00;2.90;;;;;;;18.80;38.05;97855.09;1711817;75;632057;-71
2023/03/20 11:05:37;;;;;;;5.85;4.25;;;;;;;18.31;38.64;97861.53;1703725;75;689889;-72
2023/03/20 11:08:14;;;;;;;3.30;2.80;;;;;;;18.93;37.56;97852.38;1711974;75;632057;-75
2023/03/20 11:10:47;;;;;;;4.70;2.75;;;;;;;18.86;37.88;97843.94;1704097;75;690998;-74
2023/03/20 11:13:28;;;;;;;5.10;3.00;;;;;;;18.36;37.62;97848.16;1712149;75;632041;-71
2023/03/20 11:15:59;;;;;;;4.55;2.70;;;;;;;18.53;36.87;97846.63;1704234;75;693517;-75
2023/03/20 11:18:33;;;;;;;4.70;2.60;;;;;;;18.57;36.68;97840.78;1711918;75;631011;-74
2023/03/20 11:21:05;;;;;;;1.65;1.10;;;;;;;18.96;36.53;97841.50;1704434;75;690931;-69
2023/03/20 11:23:38;;;;;;;2.80;1.60;;;;;;;18.45;36.44;97839.47;1712125;75;632971;-74
2023/03/20 11:26:16;;;;;;;1.55;1.20;;;;;;;18.19;37.19;97840.03;1704136;75;691783;-73
2023/03/20 11:28:54;;;;;;;1.80;1.00;;;;;;;17.72;37.66;97840.31;1704007;75;633989;-71
2023/03/20 11:31:30;;;;;;;;;;;;;;;17.76;38.08;97844.28;1712626;75;633000;-71
2023/03/20 11:34:23;;;;;;;2.55;1.45;;;;;;;17.90;39.65;97836.88;1704583;75;633110;-72
2023/03/20 11:37:00;;;;;;;4.60;2.65;;;;;;;17.78;40.31;97841.00;1704671;75;634013;-72
2023/03/20 11:39:35;;;;;;;8.30;3.50;;;;;;;17.48;41.16;97843.81;1710570;75;632045;-73
2023/03/20 11:42:26;;;;;;;5.40;3.80;;;;;;;17.18;41.75;97850.88;1704131;75;634030;-75
2023/03/20 11:45:04;;;;;;;5.00;3.90;;;;;;;17.13;42.19;97837.84;1703533;75;633161;-71
2023/03/20 11:47:37;;;;;;;6.90;3.80;;;;;;;17.00;41.81;97841.25;1712078;75;634176;-74
2023/03/20 11:50:27;;;;;;;4.70;3.80;;;;;;;16.98;42.70;97834.69;1704098;75;634007;-71
2023/03/20 11:52:57;;;;;;;4.60;3.10;;;;;;;16.98;42.73;97832.69;1704365;75;634139;-72
2023/03/20 11:55:32;;;;;;;7.30;3.40;;;;;;;16.85;42.96;97837.31;1711708;75;634069;-71
2023/03/20 11:58:08;;;;;;;5.00;3.10;;;;;;;16.76;43.32;97828.06;1704511;75;633019;-72
2023/03/20 12:00:43;;;;;;;6.40;4.50;;;;;;;16.52;43.47;97828.69;1711694;75;633098;-75
2023/03/20 12:03:45;;;;;;;4.90;3.80;;;;;;;16.61;43.72;97825.63;1703767;75;691885;-72
2023/03/20 12:06:23;;;;;;;5.65;3.70;;;;;;;16.34;44.50;97829.31;1703684;75;693022;-72
2023/03/20 12:09:02;;;;;;;5.00;3.50;;;;;;;16.38;44.29;97824.28;1703963;75;634157;-71
2023/03/20 12:11:49;;;;;;;5.20;3.70;;;;;;;16.14;44.73;97813.88;1711622;75;634426;-73
2023/03/20 12:14:31;;;;;;;4.60;3.65;;;;;;;16.12;44.94;97817.13;1703699;75;694200;-74
2023/03/20 12:17:28;;;;;;;5.75;3.50;;;;;;;16.06;44.51;97810.13;1703715;75;632918;-71
2023/03/20 12:20:04;;;;;;;5.50;3.70;;;;;;;15.92;44.88;97814.69;1703950;75;634156;-70
2023/03/20 12:22:40;;;;;;;3.70;2.75;;;;;;;16.06;45.03;97807.38;1711891;75;633099;-74
2023/03/20 12:25:23;;;;;;;3.85;2.75;;;;;;;16.09;44.93;97811.88;1704660;75;634147;-72
2023/03/20 12:28:06;;;;;;;3.00;2.50;;;;;;;16.13;44.53;97804.81;1711353;75;632025;-73
2023/03/20 12:30:57;;;;;;;5.90;2.65;;;;;;;16.13;45.12;97798.53;1703461;75;692542;-74
2023/03/20 12:33:46;;;;;;;3.85;2.35;;;;;;;16.22;44.79;97798.25;1703877;75;633047;-72
2023/03/20 12:36:21;;;;;;;3.30;2.80;;;;;;;16.25;44.46;97802.75;1703885;75;633052;-72
2023/03/20 12:38:51;;;;;;;3.10;2.30;;;;;;;16.28;44.83;97790.66;1711558;75;632115;-72
2023/03/20 12:41:30;;;;;;;4.50;2.80;;;;;;;16.19;44.38;97797.25;1704623;75;632011;-74
2023/03/20 12:44:32;;;;;;;5.80;3.40;;;;;;;15.93;44.39;97794.13;1712177;75;632017;-72
2023/03/20 12:47:20;;;;;;;2.85;2.25;;;;;;;16.21;44.16;97788.47;1703557;75;692539;-70
2023/03/20 12:50:01;;;;;;;2.90;2.20;;;;;;;16.06;44.24;97793.56;1703674;75;633171;-73
2023/03/20 12:52:47;;;;;;;3.30;2.50;;;;;;;16.21;44.40;97780.19;1718458;64;633003;-72
2023/03/20 12:55:43;;;;;;;4.50;2.60;;;;;;;16.16;44.03;97786.47;1703036;75;687927;-72
2023/03/20 12:58:30;;;;;;;4.45;2.35;;;;;;;16.27;43.19;97788.44;1703812;75;633982;-77
2023/03/20 13:01:06;;;;;;;3.00;2.25;;;;;;;16.02;43.67;97791.09;1702648;75;634411;-72
2023/03/20 13:03:54;;;;;;;4.60;2.70;;;;;;;16.18;44.25;97778.44;1711248;75;633052;-71
2023/03/20 13:06:39;;;;;;;6.95;2.45;;;;;;;16.15;43.87;97765.66;1703699;75;694325;-73
2023/03/20 13:09:50;;;;;;;3.80;2.60;;;;;;;16.29;44.01;97772.09;1703447;75;632972;-74